AIRPORT_AIRPORT_METAR
METAR FOR LFKB
ADDS - METARS form results

(0128 UTC 06 December 2019)
Data provider http://aviationweather.gov/metar/data/
 
METAR text: LFKB 060100Z AUTO 21004KT 9999 FEW012/// ///TCU 10/10 Q1022
Conditions at: LFKB (BASTIA/PORETTA , FR) observed 0100 UTC 06 December 2019
Temperature: 10.0°C (50°F)
Dewpoint: 10.0°C (50°F) [RH = 100%]
Pressure (altimeter): 30.18 inches Hg (1022.0 mb)
Winds: from the SSW (210 degrees) at 5 MPH (4 knots; 2.1 m/s)
Visibility: 6 or more miles (10+ km)
Ceiling: at least 12,000 feet AGL
Clouds: few clouds at 1200 feet AGL
Weather: no significant weather observed at this time

METAR text: LFKB 060030Z AUTO 22003KT 9999 1100 R34/P5000 BKN074/// ///CB 11/10 Q1022
Conditions at: LFKB (BASTIA/PORETTA , FR) observed 0030 UTC 06 December 2019
Temperature: 11.0°C (52°F)
Dewpoint: 10.0°C (50°F) [RH = 94%]
Pressure (altimeter): 30.18 inches Hg (1022.0 mb)
Winds: from the SW (220 degrees) at 3 MPH (3 knots; 1.5 m/s)
Visibility: 6 or more miles (10+ km)
Ceiling: 7400 feet AGL
Clouds: broken clouds at 7400 feet AGL
Weather: no significant weather observed at this time

 AIRPORT_AIRPORT_MAP

 AIRPORT_RUNWAY_INFO
AIRPORT_RUNWAY 16 AIRPORT_RUNWAY_LENGTH 8266 ft AIRPORT_RUNWAY_WIDTH 148 ft
AIRPORT_RUNWAY_ELEVATION 13 ft AIRPORT_RUNWAY_THRESHOLD 0 ft AIRPORT_RUNWAY_HEADING 163
AIRPORT_RUNWAY 34 AIRPORT_RUNWAY_LENGTH 8266 ft AIRPORT_RUNWAY_WIDTH 148 ft
AIRPORT_RUNWAY_ELEVATION 26 ft AIRPORT_RUNWAY_THRESHOLD 0 ft AIRPORT_RUNWAY_HEADING 343

 AIRPORT_AIRPORT_FREQUENCIES
AIRPORT_AIRPORT_NAVAIDS_TYPE AFIS AIRPORT_AIRPORT_NAVAIDS_NAME BASTIA INF AIRPORT_AIRPORT_NAVAIDS_FREQ 124.725 MHZ
AIRPORT_AIRPORT_NAVAIDS_TYPE APP AIRPORT_AIRPORT_NAVAIDS_NAME BASTIA RAD AIRPORT_AIRPORT_NAVAIDS_FREQ 123.825 MHZ
AIRPORT_AIRPORT_NAVAIDS_TYPE ARR AIRPORT_AIRPORT_NAVAIDS_NAME BASTIA APP AIRPORT_AIRPORT_NAVAIDS_FREQ 37.85 MHZ
AIRPORT_AIRPORT_NAVAIDS_TYPE ATIS AIRPORT_AIRPORT_NAVAIDS_NAME BASTIA ATI AIRPORT_AIRPORT_NAVAIDS_FREQ 125.925 MHZ
AIRPORT_AIRPORT_NAVAIDS_TYPE GND AIRPORT_AIRPORT_NAVAIDS_NAME GND AIRPORT_AIRPORT_NAVAIDS_FREQ 121.825 MHZ
AIRPORT_AIRPORT_NAVAIDS_TYPE TWR AIRPORT_AIRPORT_NAVAIDS_NAME BASTIA TWR AIRPORT_AIRPORT_NAVAIDS_FREQ 118 MHZ

 AIRPORT_AIRPORT_NAVAIDS
AIRPORT_AIRPORT_NAVAIDS_TYPE VOR-DME AIRPORT_AIRPORT_NAVAIDS_NAME Bastia AIRPORT_AIRPORT_NAVAIDS_FREQ 114150 KHZ



Copyright © 2005-2019 - Virtuel Air Alsace - Tous droits réservés